Time;durP1;ratioP1;P1;durP2;ratioP2;P2;SDS_P1;SDS_P2;PMS_P1;PMS_P2;Temp;Humidity;BMP_temperature;BMP_pressure;BME280_temperature;BME280_humidity;BME280_pressure;Samples;Min_cycle;Max_cycle;Signal;HPM_P1;HPM_P2
2022/05/30 00:00:18;;;;;;;2.30;1.77;;;11.40;99.90;;;;;;5032748;28;20434;-69
2022/05/30 00:02:44;;;;;;;1.77;1.67;;;11.30;99.90;;;;;;5032036;28;20423;-69
2022/05/30 00:05:11;;;;;;;1.93;1.70;;;11.30;99.90;;;;;;5032177;28;20430;-68
2022/05/30 00:07:38;;;;;;;1.90;1.20;;;11.30;99.90;;;;;;5032397;28;20650;-68
2022/05/30 00:10:06;;;;;;;1.93;1.53;;;11.30;99.90;;;;;;5032136;28;20402;-68
2022/05/30 00:12:32;;;;;;;1.93;1.50;;;11.20;99.90;;;;;;5032142;28;20437;-69
2022/05/30 00:14:57;;;;;;;1.13;1.03;;;11.10;99.90;;;;;;5032084;28;20402;-69
2022/05/30 00:17:23;;;;;;;2.00;1.90;;;11.10;99.90;;;;;;5032490;28;20167;-69
2022/05/30 00:19:48;;;;;;;1.40;1.30;;;11.10;99.90;;;;;;5032305;28;20167;-69
2022/05/30 00:22:14;;;;;;;2.27;1.90;;;11.00;99.90;;;;;;5031023;28;20176;-67
2022/05/30 00:24:41;;;;;;;1.40;1.20;;;11.00;99.90;;;;;;5031915;28;20665;-69
2022/05/30 00:27:07;;;;;;;2.43;1.43;;;10.90;99.90;;;;;;5031965;28;20925;-68
2022/05/30 00:29:33;;;;;;;1.50;1.40;;;10.80;99.90;;;;;;5032269;28;20402;-68
2022/05/30 00:31:58;;;;;;;2.17;1.30;;;10.90;99.90;;;;;;5032046;28;20230;-68
2022/05/30 00:34:24;;;;;;;1.73;1.23;;;10.80;99.90;;;;;;5031955;28;20179;-68
2022/05/30 00:36:50;;;;;;;1.70;1.60;;;10.80;99.90;;;;;;5031914;28;20197;-68
2022/05/30 00:39:16;;;;;;;1.83;1.53;;;10.80;99.90;;;;;;5031884;28;20827;-68
2022/05/30 00:41:41;;;;;;;1.70;1.40;;;10.80;99.90;;;;;;5031950;28;20519;-68
2022/05/30 00:44:07;;;;;;;1.60;1.50;;;10.90;99.90;;;;;;5031550;28;20475;-68
2022/05/30 00:46:33;;;;;;;1.70;1.60;;;10.90;99.90;;;;;;5031331;28;20207;-69
2022/05/30 00:49:03;;;;;;;1.90;1.77;;;11.00;99.90;;;;;;5031709;28;20170;-69
2022/05/30 00:51:36;;;;;;;4.43;1.93;;;11.00;99.90;;;;;;5031686;28;20176;-68
2022/05/30 00:54:04;;;;;;;2.00;1.80;;;11.00;99.90;;;;;;5031502;28;20402;-68
2022/05/30 00:56:35;;;;;;;1.77;1.33;;;11.00;99.90;;;;;;5031450;28;20556;-68
2022/05/30 00:59:01;;;;;;;1.80;1.30;;;11.00;99.90;;;;;;5034697;28;20399;-68
2022/05/30 01:01:27;;;;;;;1.60;1.50;;;11.00;99.90;;;;;;5038187;28;20415;-68
2022/05/30 01:06:43;;;;;;;2.17;1.40;;;11.10;99.90;;;;;;5031405;28;20975;-68
2022/05/30 01:09:19;;;;;;;2.97;1.57;;;11.10;99.90;;;;;;5031800;28;20403;-68
2022/05/30 01:11:51;;;;;;;2.10;1.90;;;11.10;99.90;;;;;;5031555;28;20758;-68
2022/05/30 01:14:18;;;;;;;1.87;1.40;;;11.10;99.90;;;;;;5031237;28;20446;-68
2022/05/30 01:16:43;;;;;;;1.17;1.07;;;11.20;99.90;;;;;;5031070;28;20849;-68
2022/05/30 01:19:19;;;;;;;1.50;1.40;;;11.20;99.90;;;;;;5031265;28;20501;-68
2022/05/30 01:22:20;;;;;;;1.20;1.10;;;11.20;99.90;;;;;;5031643;28;20207;-68
2022/05/30 01:25:23;;;;;;;1.80;1.30;;;11.20;99.90;;;;;;5008727;28;20473;-68
2022/05/30 01:28:04;;;;;;;1.40;1.30;;;11.20;99.90;;;;;;5033148;28;20508;-68
2022/05/30 01:30:32;;;;;;;1.27;1.17;;;11.20;99.90;;;;;;5035764;28;20414;-68
2022/05/30 01:32:58;;;;;;;1.90;1.37;;;11.20;99.90;;;;;;5035394;28;20472;-68
2022/05/30 01:35:25;;;;;;;1.97;1.77;;;11.20;99.90;;;;;;5034843;28;20429;-68
2022/05/30 01:37:51;;;;;;;1.90;1.20;;;11.30;99.90;;;;;;5034073;28;20426;-68
2022/05/30 01:40:16;;;;;;;1.63;1.53;;;11.30;99.90;;;;;;5031358;28;20896;-68
2022/05/30 01:42:42;;;;;;;1.97;1.53;;;11.20;99.90;;;;;;5030866;28;20176;-68
2022/05/30 01:45:08;;;;;;;3.63;1.90;;;11.20;99.90;;;;;;5054441;23;20583;-71
2022/05/30 01:47:34;;;;;;;2.83;1.37;;;11.20;99.90;;;;;;5028880;28;20438;-72
2022/05/30 01:50:00;;;;;;;1.60;1.30;;;11.20;99.90;;;;;;5031255;28;20179;-71
2022/05/30 01:52:28;;;;;;;4.20;2.27;;;11.20;99.90;;;;;;5030805;28;20745;-72
2022/05/30 01:54:54;;;;;;;3.07;1.80;;;11.20;99.90;;;;;;5029699;28;20764;-71
2022/05/30 01:57:19;;;;;;;1.33;1.20;;;11.20;99.90;;;;;;5033578;28;20426;-71
2022/05/30 01:59:45;;;;;;;1.50;1.20;;;11.20;99.90;;;;;;5035160;28;20171;-71
2022/05/30 02:02:10;;;;;;;2.13;1.87;;;11.20;99.90;;;;;;5034855;28;20210;-71
2022/05/30 02:04:36;;;;;;;1.83;1.60;;;11.20;99.90;;;;;;5034612;28;20214;-71
2022/05/30 02:07:01;;;;;;;1.40;1.30;;;11.20;99.90;;;;;;5034999;28;20199;-71
2022/05/30 02:09:27;;;;;;;2.60;2.20;;;11.20;99.90;;;;;;5035043;28;20172;-71
2022/05/30 02:11:52;;;;;;;3.53;2.07;;;11.20;99.90;;;;;;5034633;28;20225;-72
2022/05/30 02:14:18;;;;;;;2.10;2.00;;;11.10;99.90;;;;;;5034645;28;20240;-72
2022/05/30 02:17:01;;;;;;;2.13;1.80;;;11.10;99.90;;;;;;5034310;28;20310;-71
2022/05/30 02:19:32;;;;;;;4.20;1.40;;;11.00;99.90;;;;;;5033275;28;20183;-71
2022/05/30 02:21:59;;;;;;;2.00;1.80;;;11.00;99.90;;;;;;5033201;28;20418;-71
2022/05/30 02:24:24;;;;;;;2.00;1.83;;;10.90;99.90;;;;;;5034420;28;20455;-71
2022/05/30 02:26:50;;;;;;;1.50;1.40;;;10.90;99.90;;;;;;5034307;28;20774;-71
2022/05/30 02:29:16;;;;;;;7.60;2.80;;;10.80;99.90;;;;;;5034188;28;20176;-71
2022/05/30 02:31:42;;;;;;;2.03;1.83;;;10.80;99.90;;;;;;5034132;28;20172;-71
2022/05/30 02:36:52;;;;;;;3.20;3.00;;;10.80;99.90;;;;;;5034314;28;20504;-71
2022/05/30 02:39:21;;;;;;;2.30;2.00;;;10.80;99.90;;;;;;5034766;28;20406;-71
2022/05/30 02:41:47;;;;;;;2.20;2.00;;;10.70;99.90;;;;;;5039130;28;20898;-71
2022/05/30 02:44:14;;;;;;;2.17;1.93;;;10.60;99.90;;;;;;5037781;28;20445;-70
2022/05/30 02:46:40;;;;;;;1.70;1.57;;;10.60;99.90;;;;;;5033539;28;20446;-72
2022/05/30 02:49:08;;;;;;;2.33;2.10;;;10.60;99.90;;;;;;5034167;28;20901;-71
2022/05/30 02:51:33;;;;;;;2.33;2.00;;;10.60;99.90;;;;;;5034048;28;20766;-71
2022/05/30 02:53:59;;;;;;;2.20;2.00;;;10.50;99.90;;;;;;5034145;28;20403;-71
2022/05/30 02:56:24;;;;;;;3.97;1.90;;;10.60;99.90;;;;;;5033630;28;20191;-71
2022/05/30 02:58:50;;;;;;;5.20;2.30;;;10.60;99.90;;;;;;5033503;28;20250;-71
2022/05/30 03:01:16;;;;;;;2.50;2.30;;;10.60;99.90;;;;;;5033458;28;20206;-71
2022/05/30 03:03:43;;;;;;;2.80;1.77;;;10.60;99.90;;;;;;5033315;28;20208;-71
2022/05/30 03:06:09;;;;;;;2.77;2.57;;;10.70;99.90;;;;;;5033261;28;20481;-71
2022/05/30 03:08:35;;;;;;;2.67;2.23;;;10.70;99.90;;;;;;5033949;28;20456;-71
2022/05/30 03:11:00;;;;;;;2.63;2.43;;;10.80;99.90;;;;;;5034114;28;20406;-72
2022/05/30 03:13:26;;;;;;;2.83;1.80;;;10.80;99.90;;;;;;5033375;28;20561;-71
2022/05/30 03:15:51;;;;;;;2.93;2.73;;;10.80;99.90;;;;;;5033021;28;20191;-71
2022/05/30 03:18:17;;;;;;;2.73;2.53;;;10.80;99.90;;;;;;5033360;28;20172;-71
2022/05/30 03:20:42;;;;;;;3.03;2.70;;;10.80;99.90;;;;;;5033517;28;20191;-71
2022/05/30 03:23:08;;;;;;;3.13;2.00;;;10.80;99.90;;;;;;5033061;28;20191;-72
2022/05/30 03:25:34;;;;;;;2.40;2.20;;;10.80;99.90;;;;;;5032650;28;20591;-70
2022/05/30 03:28:00;;;;;;;3.43;2.83;;;10.80;99.90;;;;;;5032802;28;20561;-71
2022/05/30 03:30:26;;;;;;;12.33;2.93;;;10.80;99.90;;;;;;5032980;28;20485;-71
2022/05/30 03:32:51;;;;;;;3.03;2.70;;;10.80;99.90;;;;;;5033038;28;20411;-71
2022/05/30 03:35:17;;;;;;;2.43;2.10;;;10.70;99.90;;;;;;5032451;28;20486;-72
2022/05/30 03:37:44;;;;;;;3.83;2.80;;;10.70;99.90;;;;;;5032737;28;20193;-71
2022/05/30 03:40:13;;;;;;;2.83;2.60;;;10.70;99.90;;;;;;5032690;28;20233;-71
2022/05/30 03:42:38;;;;;;;3.57;2.70;;;10.70;99.90;;;;;;5032447;28;20509;-71
2022/05/30 03:45:06;;;;;;;6.07;2.50;;;10.70;99.90;;;;;;5031954;28;20636;-71
2022/05/30 03:47:39;;;;;;;3.70;2.47;;;10.70;99.90;;;;;;5032911;28;20789;-72
2022/05/30 03:50:06;;;;;;;2.40;2.20;;;10.80;99.90;;;;;;5032536;28;20423;-72
2022/05/30 03:52:32;;;;;;;4.63;2.70;;;10.80;99.90;;;;;;5032444;28;20387;-72
2022/05/30 03:54:57;;;;;;;2.80;2.60;;;10.80;99.90;;;;;;5032210;28;20405;-71
2022/05/30 03:57:23;;;;;;;2.90;2.70;;;10.90;99.90;;;;;;5035901;28;20212;-72
2022/05/30 03:59:49;;;;;;;1.77;1.67;;;11.00;99.90;;;;;;5034317;28;20191;-72
2022/05/30 04:02:14;;;;;;;4.00;2.97;;;11.10;99.90;;;;;;5032440;28;20180;-72
2022/05/30 04:04:40;;;;;;;2.30;2.10;;;11.00;99.90;;;;;;5032293;28;20729;-72
2022/05/30 04:07:05;;;;;;;4.20;2.30;;;11.00;99.90;;;;;;5032375;28;20188;-72
2022/05/30 04:09:31;;;;;;;3.10;2.73;;;10.90;99.90;;;;;;5032059;28;20168;-71
2022/05/30 04:11:56;;;;;;;3.80;3.03;;;10.90;99.90;;;;;;5031947;28;20175;-72
2022/05/30 04:14:22;;;;;;;5.60;4.00;;;11.00;99.90;;;;;;5032128;28;20191;-72
2022/05/30 04:16:47;;;;;;;4.27;3.07;;;11.00;99.90;;;;;;5037448;28;20202;-71
2022/05/30 04:19:13;;;;;;;3.60;3.00;;;10.90;99.90;;;;;;5031483;28;20171;-72
2022/05/30 04:21:39;;;;;;;4.60;2.80;;;10.80;99.90;;;;;;5031784;28;20557;-72
2022/05/30 04:24:05;;;;;;;5.70;3.40;;;10.80;99.90;;;;;;5031689;28;20611;-72
2022/05/30 04:26:31;;;;;;;3.60;2.93;;;10.90;99.90;;;;;;5031295;28;20188;-72
2022/05/30 04:28:57;;;;;;;3.73;3.20;;;10.90;99.90;;;;;;5031506;28;21235;-72
2022/05/30 04:31:22;;;;;;;6.00;3.83;;;10.90;99.90;;;;;;5031739;28;20409;-73
2022/05/30 04:33:48;;;;;;;3.97;3.07;;;10.90;99.90;;;;;;5031674;28;20183;-72
2022/05/30 04:36:14;;;;;;;3.50;2.90;;;10.80;99.90;;;;;;5031428;28;20555;-72
2022/05/30 04:38:40;;;;;;;2.63;2.20;;;10.90;99.90;;;;;;5031659;28;20164;-72
2022/05/30 04:41:06;;;;;;;3.93;2.20;;;10.60;99.90;;;;;;5031399;28;20469;-72
2022/05/30 04:43:31;;;;;;;2.27;2.07;;;10.60;99.90;;;;;;5031214;28;20466;-72
2022/05/30 04:46:15;;;;;;;6.27;2.70;;;10.60;99.90;;;;;;5031224;28;20310;-72
2022/05/30 04:48:42;;;;;;;3.10;2.70;;;10.70;99.90;;;;;;5031645;28;20167;-72
2022/05/30 04:51:08;;;;;;;3.50;2.80;;;10.60;99.90;;;;;;5031531;28;20417;-72
2022/05/30 04:53:34;;;;;;;6.83;3.30;;;10.70;99.90;;;;;;5031559;28;20411;-72
2022/05/30 04:56:00;;;;;;;5.20;2.80;;;10.60;99.90;;;;;;5030909;28;20454;-71
2022/05/30 04:58:28;;;;;;;2.20;1.80;;;10.60;99.90;;;;;;5031369;28;20182;-71
2022/05/30 05:01:02;;;;;;;3.53;2.57;;;10.70;99.90;;;;;;5031434;28;20869;-71
2022/05/30 05:03:29;;;;;;;4.87;2.60;;;10.70;99.90;;;;;;5031283;28;20450;-73
2022/05/30 05:06:08;;;;;;;1.77;1.67;;;10.70;99.90;;;;;;5030905;28;20433;-71
2022/05/30 05:08:43;;;;;;;1.97;1.87;;;10.70;99.90;;;;;;5031221;28;20489;-72
2022/05/30 05:11:12;;;;;;;2.13;1.83;;;10.80;99.90;;;;;;5031238;28;20977;-72
2022/05/30 05:13:37;;;;;;;5.53;2.70;;;10.90;99.90;;;;;;5030776;28;21003;-71
2022/05/30 05:16:03;;;;;;;2.57;2.37;;;11.20;99.90;;;;;;5030842;28;20597;-71
2022/05/30 05:18:28;;;;;;;3.00;2.80;;;11.30;99.90;;;;;;5031222;28;20622;-72
2022/05/30 05:20:54;;;;;;;4.10;2.40;;;11.30;99.90;;;;;;5030661;28;20179;-72
2022/05/30 05:23:19;;;;;;;7.93;3.00;;;11.20;99.90;;;;;;5030699;28;20666;-72
2022/05/30 05:25:44;;;;;;;4.10;3.07;;;11.00;99.90;;;;;;5030366;28;20732;-71
2022/05/30 05:28:10;;;;;;;6.23;3.57;;;11.10;99.90;;;;;;5030735;28;20168;-72
2022/05/30 05:30:42;;;;;;;6.80;2.87;;;11.10;99.90;;;;;;5029649;28;20233;-72
2022/05/30 05:33:08;;;;;;;4.67;2.80;;;11.30;99.90;;;;;;5034937;28;20171;-72
2022/05/30 05:35:34;;;;;;;3.73;3.00;;;11.20;99.90;;;;;;5034693;28;20425;-71
2022/05/30 05:38:00;;;;;;;6.80;3.20;;;10.90;99.90;;;;;;5035089;28;20499;-71
2022/05/30 05:40:28;;;;;;;2.73;2.47;;;11.20;99.90;;;;;;5034958;28;20254;-72
2022/05/30 05:42:53;;;;;;;3.47;2.73;;;11.50;99.90;;;;;;5034669;28;20234;-72
2022/05/30 05:45:19;;;;;;;5.10;2.50;;;11.50;99.90;;;;;;5034782;28;20768;-71
2022/05/30 05:47:44;;;;;;;4.23;2.40;;;11.20;99.90;;;;;;5034955;28;20183;-71
2022/05/30 05:50:10;;;;;;;2.90;2.20;;;11.60;99.90;;;;;;5034954;28;20176;-71
2022/05/30 05:52:36;;;;;;;3.20;2.17;;;11.90;99.90;;;;;;5034944;28;20641;-73
2022/05/30 05:55:03;;;;;;;2.40;2.20;;;11.90;99.90;;;;;;5034554;28;20774;-72
2022/05/30 05:57:28;;;;;;;3.20;2.93;;;11.70;99.90;;;;;;5034522;28;20975;-71
2022/05/30 05:59:54;;;;;;;3.10;2.17;;;11.80;99.90;;;;;;5034680;28;20414;-71
2022/05/30 06:02:20;;;;;;;4.53;2.87;;;11.80;99.90;;;;;;5034646;28;20183;-73
2022/05/30 06:04:45;;;;;;;2.47;2.27;;;12.00;99.90;;;;;;5033837;28;20211;-71
2022/05/30 06:07:12;;;;;;;2.80;1.93;;;12.00;99.90;;;;;;5033972;28;20432;-72
2022/05/30 06:09:38;;;;;;;2.80;2.60;;;11.60;99.90;;;;;;5034185;28;20168;-72
2022/05/30 06:12:04;;;;;;;4.03;2.30;;;11.80;99.90;;;;;;5033842;28;20442;-72
2022/05/30 06:14:30;;;;;;;4.70;2.33;;;12.00;99.90;;;;;;5033831;28;20453;-71
2022/05/30 06:16:56;;;;;;;2.33;2.13;;;12.00;99.90;;;;;;5034044;28;20249;-72
2022/05/30 06:19:21;;;;;;;3.23;2.93;;;11.90;99.90;;;;;;5033916;28;20291;-72
2022/05/30 06:21:47;;;;;;;4.97;2.63;;;11.80;99.90;;;;;;5034031;28;20489;-72
2022/05/30 06:24:14;;;;;;;4.07;3.67;;;11.90;99.90;;;;;;5033891;28;20199;-72
2022/05/30 06:26:40;;;;;;;8.70;2.70;;;11.90;99.90;;;;;;5033783;28;20196;-72
2022/05/30 06:29:06;;;;;;;3.80;1.90;;;12.00;99.90;;;;;;5034139;28;20845;-72
2022/05/30 06:31:32;;;;;;;3.97;2.70;;;11.90;99.90;;;;;;5034026;28;20767;-72
2022/05/30 06:34:02;;;;;;;2.47;2.03;;;11.80;99.90;;;;;;5033909;28;20183;-72
2022/05/30 06:36:27;;;;;;;4.70;3.10;;;11.70;99.90;;;;;;5033971;28;20480;-71
2022/05/30 06:38:55;;;;;;;3.20;2.97;;;11.70;99.90;;;;;;5033863;28;20814;-71
2022/05/30 06:41:31;;;;;;;3.63;2.43;;;11.70;99.90;;;;;;5033827;28;20410;-71
2022/05/30 06:44:02;;;;;;;5.67;2.80;;;11.50;99.90;;;;;;5033312;28;20450;-71
2022/05/30 06:46:28;;;;;;;3.70;2.20;;;11.80;99.90;;;;;;5033169;28;20454;-72
2022/05/30 06:48:56;;;;;;;2.50;2.30;;;11.90;99.90;;;;;;5033357;28;20407;-71
2022/05/30 06:51:23;;;;;;;2.30;2.20;;;11.80;99.90;;;;;;5033184;28;20407;-71
2022/05/30 06:53:48;;;;;;;3.63;3.20;;;11.40;99.90;;;;;;5033607;28;20410;-71
2022/05/30 06:56:17;;;;;;;2.93;2.60;;;11.70;99.90;;;;;;5033011;28;20944;-72
2022/05/30 06:58:46;;;;;;;8.03;2.17;;;11.80;99.90;;;;;;5033432;28;20550;-72
2022/05/30 07:01:13;;;;;;;4.00;2.73;;;11.60;99.90;;;;;;5033595;28;20458;-72
2022/05/30 07:03:39;;;;;;;4.47;2.87;;;11.90;99.90;;;;;;5033408;28;20980;-72
2022/05/30 07:06:07;;;;;;;2.50;2.20;;;11.90;99.90;;;;;;5032973;28;20431;-72
2022/05/30 07:08:33;;;;;;;3.00;2.37;;;11.90;99.90;;;;;;5033691;28;20406;-72
2022/05/30 07:11:00;;;;;;;3.30;2.47;;;12.00;99.90;;;;;;5033262;28;20912;-72
2022/05/30 07:13:26;;;;;;;3.00;2.20;;;12.40;99.90;;;;;;5033399;28;20449;-72
2022/05/30 07:15:52;;;;;;;2.60;2.30;;;12.40;99.90;;;;;;5033240;28;20442;-72
2022/05/30 07:18:19;;;;;;;4.57;2.17;;;12.40;99.90;;;;;;5033323;28;20160;-72
2022/05/30 07:20:45;;;;;;;3.23;2.93;;;12.50;99.90;;;;;;5033053;28;20694;-72
2022/05/30 07:23:12;;;;;;;2.33;1.67;;;12.10;99.90;;;;;;5032960;28;20512;-72
2022/05/30 07:25:38;;;;;;;3.90;2.00;;;11.90;99.90;;;;;;5032499;28;20449;-72
2022/05/30 07:28:05;;;;;;;5.83;2.40;;;12.30;99.90;;;;;;5032956;28;20438;-72
2022/05/30 07:30:34;;;;;;;3.50;2.67;;;12.70;99.90;;;;;;5033260;28;20452;-72
2022/05/30 07:32:59;;;;;;;2.77;2.07;;;12.40;99.90;;;;;;5033071;28;20394;-72
2022/05/30 07:35:25;;;;;;;4.43;1.93;;;12.50;99.90;;;;;;5032717;28;20761;-72
2022/05/30 07:37:50;;;;;;;3.70;2.37;;;12.60;99.90;;;;;;5033154;28;20168;-72
2022/05/30 07:40:16;;;;;;;3.40;1.97;;;12.90;99.90;;;;;;5032926;28;20543;-72
2022/05/30 07:42:42;;;;;;;3.00;2.80;;;12.70;99.90;;;;;;5032644;28;20265;-72
2022/05/30 07:45:11;;;;;;;2.30;2.10;;;12.60;99.90;;;;;;5032430;28;20466;-72
2022/05/30 07:47:37;;;;;;;3.60;2.27;;;12.30;99.90;;;;;;5033536;28;20639;-72
2022/05/30 07:50:04;;;;;;;3.27;2.47;;;12.10;99.90;;;;;;5032422;28;20963;-72
2022/05/30 07:52:30;;;;;;;3.10;1.90;;;12.40;99.90;;;;;;5032420;28;20507;-72
2022/05/30 07:54:57;;;;;;;3.47;2.20;;;12.80;99.90;;;;;;5031181;28;20480;-71
2022/05/30 07:57:50;;;;;;;2.80;2.60;;;13.20;99.90;;;;;;5032170;28;20438;-72
2022/05/30 08:00:09;;;;;;;2.10;1.90;;;13.20;99.90;;;;;;5032036;28;20917;-72
2022/05/30 08:02:34;;;;;;;3.37;2.33;;;12.80;99.90;;;;;;5031991;28;20468;-72
2022/05/30 08:05:00;;;;;;;3.03;2.80;;;12.40;99.90;;;;;;5031843;28;20462;-72
2022/05/30 08:07:25;;;;;;;3.10;2.13;;;12.30;99.90;;;;;;5032118;28;20198;-72
2022/05/30 08:09:51;;;;;;;2.37;2.00;;;12.50;99.90;;;;;;5032006;28;20207;-72
2022/05/30 08:12:16;;;;;;;4.83;2.60;;;12.50;99.90;;;;;;5031766;28;20580;-72
2022/05/30 08:14:42;;;;;;;3.27;2.13;;;12.70;99.90;;;;;;5031647;28;20183;-72
2022/05/30 08:17:07;;;;;;;3.57;2.10;;;12.70;99.90;;;;;;5031637;28;20257;-72
2022/05/30 08:19:33;;;;;;;3.70;2.40;;;12.50;99.90;;;;;;5031980;28;20164;-72
2022/05/30 08:22:04;;;;;;;2.73;1.97;;;12.70;99.90;;;;;;5031862;28;20403;-72
2022/05/30 08:24:44;;;;;;;2.17;1.63;;;12.50;99.90;;;;;;5031307;28;20203;-72
2022/05/30 08:27:10;;;;;;;7.63;1.93;;;13.10;99.90;;;;;;5031548;28;20418;-72
2022/05/30 08:29:36;;;;;;;2.37;2.20;;;13.30;99.90;;;;;;5031821;28;20521;-72
2022/05/30 08:32:03;;;;;;;3.93;1.93;;;13.30;99.90;;;;;;5031817;28;20505;-72
2022/05/30 08:34:28;;;;;;;1.80;1.70;;;13.30;99.90;;;;;;5031706;28;20526;-72
2022/05/30 08:36:54;;;;;;;5.93;2.30;;;13.60;99.90;;;;;;5031797;28;20483;-72
2022/05/30 08:42:04;;;;;;;2.33;2.13;;;15.00;99.90;;;;;;5032310;28;20175;-72
2022/05/30 08:44:30;;;;;;;4.37;1.80;;;15.00;99.90;;;;;;5031464;28;20447;-72
2022/05/30 08:47:11;;;;;;;2.50;2.23;;;15.60;99.90;;;;;;5031608;28;20438;-72
2022/05/30 08:49:50;;;;;;;2.63;1.50;;;16.90;99.90;;;;;;5030478;28;20412;-71
2022/05/30 08:52:42;;;;;;;2.50;1.40;;;16.80;99.90;;;;;;5032116;28;20498;-72
2022/05/30 08:55:28;;;;;;;3.60;1.80;;;16.10;99.90;;;;;;5031318;28;20409;-73
2022/05/30 08:58:12;;;;;;;4.37;1.53;;;16.80;99.90;;;;;;5032049;28;20498;-73
2022/05/30 09:01:03;;;;;;;1.50;1.37;;;16.30;99.90;;;;;;5031581;28;20413;-72
2022/05/30 09:04:06;;;;;;;2.63;1.30;;;17.20;99.90;;;;;;5031345;28;20451;-72
2022/05/30 09:06:34;;;;;;;2.50;1.50;;;16.30;99.90;;;;;;5031026;28;20419;-72
2022/05/30 09:09:09;;;;;;;1.90;1.33;;;17.00;99.90;;;;;;5031417;28;20423;-72
2022/05/30 09:11:40;;;;;;;1.90;1.07;;;16.90;99.90;;;;;;5031335;28;20928;-73
2022/05/30 09:14:21;;;;;;;1.20;1.10;;;16.60;99.90;;;;;;5031595;28;20412;-72
2022/05/30 09:16:56;;;;;;;3.10;1.40;;;16.60;99.90;;;;;;5031020;28;20510;-72
2022/05/30 09:19:24;;;;;;;3.23;1.57;;;16.30;99.90;;;;;;5031461;28;20410;-73
2022/05/30 09:21:53;;;;;;;2.07;1.30;;;16.90;99.90;;;;;;5033016;28;20399;-72
2022/05/30 09:24:19;;;;;;;1.30;1.00;;;15.80;99.90;;;;;;5031714;28;20454;-73
2022/05/30 09:26:44;;;;;;;5.13;1.20;;;16.30;99.90;;;;;;5030721;28;20428;-73
2022/05/30 09:29:29;;;;;;;1.70;1.23;;;15.50;99.90;;;;;;5031108;28;20555;-72
2022/05/30 09:32:04;;;;;;;1.60;1.23;;;16.00;99.90;;;;;;5031109;28;20182;-74
2022/05/30 09:34:35;;;;;;;1.10;1.00;;;16.60;99.90;;;;;;5031584;28;20406;-72
2022/05/30 09:37:01;;;;;;;0.83;0.80;;;16.10;99.90;;;;;;5031028;28;20488;-72
2022/05/30 09:39:27;;;;;;;1.37;1.10;;;16.60;99.90;;;;;;5031565;28;20426;-72
2022/05/30 09:42:01;;;;;;;2.03;1.10;;;16.90;99.90;;;;;;5031389;28;20181;-72
2022/05/30 09:44:39;;;;;;;0.97;0.87;;;17.70;99.90;;;;;;5029865;28;20204;-72
2022/05/30 09:47:14;;;;;;;1.90;0.80;;;18.70;99.90;;;;;;5029440;28;20487;-72
2022/05/30 09:49:45;;;;;;;1.40;1.17;;;17.80;99.90;;;;;;5031945;28;20430;-71
2022/05/30 09:52:23;;;;;;;2.43;1.10;;;19.40;99.90;;;;;;5032333;28;20446;-72
2022/05/30 09:54:48;;;;;;;2.80;1.23;;;19.20;99.90;;;;;;5031008;28;20413;-72
2022/05/30 09:57:20;;;;;;;1.93;0.90;;;18.40;99.90;;;;;;5031147;28;20525;-72
2022/05/30 09:59:49;;;;;;;2.07;1.30;;;18.20;99.90;;;;;;5031219;28;20260;-72
2022/05/30 10:02:23;;;;;;;2.00;1.10;;;17.50;99.90;;;;;;5031135;28;20420;-72
2022/05/30 10:05:29;;;;;;;1.20;1.10;;;17.30;99.90;;;;;;5030802;28;20459;-73
2022/05/30 10:08:05;;;;;;;1.20;0.93;;;16.90;99.90;;;;;;4989593;28;20500;-72
2022/05/30 10:10:46;;;;;;;2.30;1.20;;;17.30;99.90;;;;;;4989372;28;20417;-73
2022/05/30 10:13:12;;;;;;;1.30;1.20;;;17.70;99.90;;;;;;5016668;28;20416;-72
2022/05/30 10:15:41;;;;;;;1.43;1.00;;;18.10;99.90;;;;;;5031135;28;20427;-73
2022/05/30 10:18:16;;;;;;;1.60;1.20;;;17.60;99.90;;;;;;5033402;28;20644;-73
2022/05/30 10:20:54;;;;;;;2.23;1.13;;;17.40;99.90;;;;;;5034884;28;20402;-75
2022/05/30 10:30:11;;;;;;;5.23;0.90;;;17.00;99.90;;;;;;5034936;28;20479;-72
2022/05/30 10:33:17;;;;;;;3.50;1.13;;;16.10;99.90;;;;;;5034600;28;20415;-71
2022/05/30 10:35:52;;;;;;;0.83;0.83;;;16.40;99.90;;;;;;5034305;28;20481;-72
2022/05/30 10:38:49;;;;;;;1.30;0.90;;;16.60;99.90;;;;;;5034894;28;20434;-72
2022/05/30 10:41:26;;;;;;;1.77;1.13;;;16.70;99.90;;;;;;4996500;28;20407;-71
2022/05/30 10:44:07;;;;;;;0.90;0.80;;;16.80;99.90;;;;;;5033281;28;20581;-73
2022/05/30 10:46:56;;;;;;;0.93;0.80;;;17.20;99.90;;;;;;5033208;28;20506;-72
2022/05/30 10:49:24;;;;;;;1.00;0.80;;;16.60;99.90;;;;;;5033347;28;20412;-71
2022/05/30 10:52:00;;;;;;;1.00;0.83;;;17.10;99.90;;;;;;5033202;28;20402;-71
2022/05/30 10:54:34;;;;;;;1.20;0.77;;;17.10;99.90;;;;;;5033080;28;20837;-73
2022/05/30 10:57:16;;;;;;;3.87;0.70;;;16.70;99.90;;;;;;5032937;28;20445;-73
2022/05/30 10:59:47;;;;;;;1.13;0.97;;;16.70;99.90;;;;;;5033168;28;20401;-72
2022/05/30 11:02:27;;;;;;;1.13;1.03;;;16.80;99.90;;;;;;5033011;28;20812;-72
2022/05/30 11:05:06;;;;;;;2.60;1.30;;;17.10;99.90;;;;;;5032822;28;20457;-72
2022/05/30 11:07:53;;;;;;;2.30;1.10;;;17.50;99.90;;;;;;5033218;28;20435;-72
2022/05/30 11:10:21;;;;;;;0.90;0.80;;;16.80;99.90;;;;;;5033049;28;20400;-72
2022/05/30 11:12:58;;;;;;;2.40;0.97;;;17.10;99.90;;;;;;5033312;28;20815;-72
2022/05/30 11:15:31;;;;;;;2.20;1.00;;;16.80;99.90;;;;;;5032696;28;20401;-72
2022/05/30 11:18:10;;;;;;;1.43;0.90;;;16.90;99.90;;;;;;5032828;28;20492;-72
2022/05/30 11:20:52;;;;;;;1.13;0.90;;;17.40;99.90;;;;;;5032696;28;20397;-72
2022/05/30 11:23:18;;;;;;;0.77;0.70;;;17.90;98.30;;;;;;5031288;28;20417;-72
2022/05/30 11:26:18;;;;;;;1.00;0.80;;;17.30;99.40;;;;;;5032217;28;20499;-72
2022/05/30 11:29:14;;;;;;;1.23;0.80;;;17.40;99.90;;;;;;5025632;28;20462;-72
2022/05/30 11:32:10;;;;;;;3.60;0.90;;;17.40;99.60;;;;;;5033101;28;20450;-72
2022/05/30 11:35:15;;;;;;;0.80;0.77;;;17.10;99.60;;;;;;5032603;28;20400;-72
2022/05/30 11:37:53;;;;;;;1.50;0.97;;;17.20;99.90;;;;;;5032998;28;20920;-71
2022/05/30 11:40:22;;;;;;;3.23;1.10;;;17.20;99.90;;;;;;5032553;28;20392;-73
2022/05/30 11:42:50;;;;;;;1.07;0.70;;;17.20;99.90;;;;;;5032462;28;21080;-71
2022/05/30 11:45:42;;;;;;;1.87;0.90;;;16.40;99.90;;;;;;5031655;28;20448;-73
2022/05/30 11:48:24;;;;;;;1.13;0.90;;;16.30;99.90;;;;;;5032432;28;20487;-72
2022/05/30 11:51:01;;;;;;;1.07;0.90;;;16.30;99.90;;;;;;5032294;28;20395;-72
2022/05/30 11:53:59;;;;;;;1.40;1.00;;;16.50;99.90;;;;;;5031929;28;20847;-73
2022/05/30 11:56:39;;;;;;;1.70;0.90;;;17.00;99.90;;;;;;5031454;28;20494;-72
2022/05/30 11:59:23;;;;;;;1.70;1.20;;;16.50;99.90;;;;;;5032047;28;20896;-72
2022/05/30 12:01:53;;;;;;;2.70;1.20;;;17.00;99.90;;;;;;5030352;28;20424;-72
2022/05/30 12:04:57;;;;;;;2.30;0.93;;;17.00;99.90;;;;;;5031348;28;20612;-72
2022/05/30 12:07:33;;;;;;;1.27;1.17;;;16.80;99.90;;;;;;4989663;28;20464;-73
2022/05/30 12:10:26;;;;;;;1.40;1.30;;;16.90;99.90;;;;;;4989972;28;20414;-73
2022/05/30 12:13:07;;;;;;;3.03;1.07;;;17.20;99.90;;;;;;5019800;28;20414;-72
2022/05/30 12:16:12;;;;;;;4.67;1.00;;;17.10;99.90;;;;;;5031119;28;20427;-72
2022/05/30 12:24:39;;;;;;;1.10;0.80;;;17.80;99.90;;;;;;5031192;28;20458;-72
2022/05/30 12:27:08;;;;;;;1.27;0.80;;;17.10;99.90;;;;;;5031056;28;20433;-72
2022/05/30 12:29:44;;;;;;;1.90;1.57;;;16.90;99.90;;;;;;5032342;28;20403;-71
2022/05/30 12:32:19;;;;;;;1.10;1.00;;;17.10;99.90;;;;;;5031025;28;20411;-72
2022/05/30 12:35:05;;;;;;;2.63;0.90;;;17.00;99.90;;;;;;5029868;28;20422;-72
2022/05/30 12:37:48;;;;;;;0.87;0.80;;;16.80;99.90;;;;;;5030044;28;20784;-73
2022/05/30 12:40:26;;;;;;;2.90;0.97;;;16.80;99.90;;;;;;5031005;28;20408;-72
2022/05/30 12:43:16;;;;;;;1.07;0.97;;;17.10;99.90;;;;;;5031605;28;20431;-72
2022/05/30 12:45:56;;;;;;;1.30;1.20;;;17.50;99.90;;;;;;5030874;28;20533;-72
2022/05/30 12:48:40;;;;;;;1.00;0.90;;;17.00;99.10;;;;;;5031441;28;20431;-72
2022/05/30 12:51:14;;;;;;;1.60;0.97;;;17.00;99.60;;;;;;5031245;28;20419;-73
2022/05/30 12:53:54;;;;;;;1.07;0.97;;;16.70;99.80;;;;;;5031368;28;20487;-73
2022/05/30 12:56:38;;;;;;;2.10;1.50;;;17.50;99.90;;;;;;5030929;28;20411;-73
2022/05/30 12:59:03;;;;;;;1.30;1.00;;;17.70;98.70;;;;;;5031336;28;20400;-73
2022/05/30 13:01:50;;;;;;;2.40;1.60;;;17.60;98.30;;;;;;5031211;28;20404;-73
2022/05/30 13:04:15;;;;;;;1.83;1.20;;;17.40;97.80;;;;;;5031568;28;20197;-72
2022/05/30 13:06:57;;;;;;;1.10;1.00;;;16.30;98.70;;;;;;5030770;28;20506;-73
2022/05/30 13:09:35;;;;;;;1.43;1.33;;;16.80;99.70;;;;;;5031047;28;20178;-72
2022/05/30 13:12:10;;;;;;;1.10;1.00;;;16.80;98.70;;;;;;5030844;28;20427;-72
2022/05/30 13:15:00;;;;;;;1.53;1.03;;;17.70;99.00;;;;;;5030584;28;20501;-72
2022/05/30 13:17:51;;;;;;;3.23;1.10;;;17.70;98.40;;;;;;5030588;28;20521;-73
2022/05/30 13:20:39;;;;;;;1.00;0.90;;;18.20;98.80;;;;;;5030971;28;20481;-73
2022/05/30 13:23:07;;;;;;;1.00;0.90;;;17.70;96.60;;;;;;5030565;28;20421;-73
2022/05/30 13:25:47;;;;;;;2.00;1.07;;;17.40;97.30;;;;;;5030323;28;20422;-72
2022/05/30 13:28:21;;;;;;;1.00;0.90;;;17.10;97.00;;;;;;5030843;28;20432;-72